createdAt,value
2023-06-17T00:03:00.928Z,39.89
2023-06-17T00:06:03.390Z,39.83
2023-06-17T00:09:05.491Z,39.86
2023-06-17T00:12:08.843Z,40.01
2023-06-17T00:15:11.976Z,40.10
2023-06-17T00:18:14.529Z,40.10
2023-06-17T00:21:16.694Z,39.81
2023-06-17T00:24:18.969Z,39.88
2023-06-17T00:27:21.172Z,39.75
2023-06-17T00:30:23.352Z,39.95
2023-06-17T00:33:25.636Z,39.85
2023-06-17T00:36:27.985Z,40.23
2023-06-17T00:39:30.097Z,40.12
2023-06-17T00:42:32.423Z,40.37
2023-06-17T00:45:40.280Z,40.39
2023-06-17T00:48:42.849Z,40.16
2023-06-17T00:51:51.128Z,40.04
2023-06-17T00:55:02.960Z,40.07
2023-06-17T00:58:05.090Z,40.15
2023-06-17T01:01:07.229Z,40.25
2023-06-17T01:04:09.839Z,40.36
2023-06-17T01:07:31.313Z,40.65
2023-06-17T01:10:44.590Z,40.74
2023-06-17T01:13:47.727Z,40.91
2023-06-17T01:16:55.833Z,40.79
2023-06-17T01:19:59.980Z,40.65
2023-06-17T01:23:04.262Z,40.78
2023-06-17T01:26:08.284Z,40.84
2023-06-17T01:29:11.136Z,40.90
2023-06-17T01:32:13.495Z,40.71
2023-06-17T01:35:17.701Z,40.93
2023-06-17T01:38:26.378Z,40.94
2023-06-17T01:41:34.573Z,41.40
2023-06-17T01:44:37.241Z,41.26
2023-06-17T01:47:40.135Z,41.56
2023-06-17T01:50:42.376Z,40.98
2023-06-17T01:53:44.954Z,40.93
2023-06-17T01:56:47.379Z,41.26
2023-06-17T01:59:49.653Z,41.49
2023-06-17T02:02:51.829Z,41.68
2023-06-17T02:05:53.968Z,41.82
2023-06-17T02:08:56.905Z,41.78
2023-06-17T02:11:59.111Z,42.07
2023-06-17T02:15:01.292Z,42.06
2023-06-17T02:18:03.489Z,41.87
2023-06-17T02:21:06.221Z,41.50
2023-06-17T02:24:08.351Z,41.25
2023-06-17T02:27:10.434Z,40.64
2023-06-17T02:30:13.235Z,40.76
2023-06-17T02:33:19.088Z,40.52
2023-06-17T02:36:21.224Z,40.62
2023-06-17T02:39:23.649Z,40.84
2023-06-17T02:42:25.700Z,41.12
2023-06-17T02:45:27.874Z,40.71
2023-06-17T02:48:30.004Z,41.08
2023-06-17T02:51:33.198Z,41.04
2023-06-17T02:54:35.263Z,41.12
2023-06-17T02:57:37.374Z,41.13
2023-06-17T03:00:39.504Z,41.23
2023-06-17T03:03:42.745Z,41.13
2023-06-17T03:06:45.584Z,40.97
2023-06-17T03:09:47.701Z,41.26
2023-06-17T03:12:49.968Z,41.30
2023-06-17T03:15:52.053Z,41.36
2023-06-17T03:18:54.349Z,41.57
2023-06-17T03:21:57.201Z,42.07
2023-06-17T03:24:59.383Z,42.06
2023-06-17T03:28:04.269Z,42.39
2023-06-17T03:31:06.885Z,42.08
2023-06-17T03:34:08.971Z,42.37
2023-06-17T03:37:11.553Z,42.34
2023-06-17T03:40:14.837Z,42.67
2023-06-17T03:43:17.006Z,42.55
2023-06-17T03:46:19.665Z,42.77
2023-06-17T03:49:21.802Z,42.90
2023-06-17T03:52:23.903Z,42.62
2023-06-17T03:55:26.403Z,42.99
2023-06-17T03:58:29.398Z,42.82
2023-06-17T04:01:31.686Z,42.71
2023-06-17T04:04:35.764Z,42.69
2023-06-17T04:07:39.616Z,43.51
2023-06-17T04:10:41.718Z,43.16
2023-06-17T04:13:44.062Z,43.29
2023-06-17T04:16:46.140Z,43.65
2023-06-17T04:19:48.980Z,43.78
2023-06-17T04:22:51.045Z,44.34
2023-06-17T04:25:53.559Z,44.11
2023-06-17T04:28:55.611Z,43.63
2023-06-17T04:31:58.147Z,44.00
2023-06-17T04:35:04.623Z,44.42
2023-06-17T04:38:07.046Z,44.73
2023-06-17T04:41:09.699Z,44.92
2023-06-17T04:44:12.110Z,44.72
2023-06-17T04:47:14.611Z,45.64
2023-06-17T04:50:17.898Z,46.51
2023-06-17T04:53:20.211Z,46.19
2023-06-17T04:56:22.252Z,46.73
2023-06-17T04:59:25.324Z,45.87
2023-06-17T05:02:27.469Z,45.61
2023-06-17T05:05:29.601Z,45.45
2023-06-17T05:08:31.704Z,45.11
2023-06-17T05:11:33.833Z,46.51
2023-06-17T05:14:36.128Z,46.17
2023-06-17T05:17:38.528Z,46.93
2023-06-17T05:20:40.669Z,47.29
2023-06-17T05:23:42.778Z,45.64
2023-06-17T05:26:44.924Z,45.25
2023-06-17T05:29:47.079Z,46.01
2023-06-17T05:32:49.319Z,46.79
2023-06-17T05:35:51.535Z,48.07
2023-06-17T05:38:53.623Z,44.16
2023-06-17T05:41:55.767Z,43.81
2023-06-17T05:44:57.898Z,44.04
2023-06-17T05:48:00.047Z,42.76
2023-06-17T05:51:02.251Z,42.47
2023-06-17T05:54:04.562Z,42.48
2023-06-17T05:57:06.762Z,42.78
2023-06-17T06:00:09.502Z,42.58
2023-06-17T06:03:11.657Z,41.62
2023-06-17T06:06:13.773Z,41.16
2023-06-17T06:09:16.054Z,41.48
2023-06-17T06:12:18.179Z,42.25
2023-06-17T06:15:20.247Z,43.22
2023-06-17T06:18:22.395Z,42.72
2023-06-17T06:21:24.513Z,42.60
2023-06-17T06:24:26.974Z,43.24
2023-06-17T06:27:29.295Z,42.70
2023-06-17T06:30:31.679Z,42.13
2023-06-17T06:33:36.303Z,41.96
2023-06-17T06:36:38.414Z,42.39
2023-06-17T06:39:40.499Z,42.35
2023-06-17T06:42:42.801Z,42.55
2023-06-17T06:45:44.931Z,42.55
2023-06-17T06:48:47.068Z,43.21
2023-06-17T06:51:49.470Z,42.76
2023-06-17T06:54:52.001Z,42.72
2023-06-17T06:57:54.177Z,42.15
2023-06-17T07:00:56.299Z,42.10
2023-06-17T07:03:58.530Z,41.62
2023-06-17T07:07:00.745Z,41.58
2023-06-17T07:10:02.948Z,41.19
2023-06-17T07:13:05.070Z,39.22
2023-06-17T07:16:07.163Z,39.39
2023-06-17T07:19:09.266Z,38.72
2023-06-17T07:22:11.495Z,39.30
2023-06-17T07:25:13.635Z,39.20
2023-06-17T07:28:15.862Z,39.59
2023-06-17T07:31:18.104Z,39.30
2023-06-17T07:34:20.487Z,39.26
2023-06-17T07:37:22.688Z,39.40
2023-06-17T07:40:24.915Z,39.31
2023-06-17T07:43:27.366Z,39.62
2023-06-17T07:46:29.686Z,39.74
2023-06-17T07:49:33.171Z,39.91
2023-06-17T07:52:36.269Z,39.83
2023-06-17T07:55:40.165Z,38.84
2023-06-17T07:58:44.327Z,39.08
2023-06-17T08:01:46.443Z,38.78
2023-06-17T08:04:49.317Z,38.92
2023-06-17T08:07:51.495Z,38.20
2023-06-17T08:10:53.594Z,38.59
2023-06-17T08:13:55.791Z,38.44
2023-06-17T08:16:58.153Z,38.33
2023-06-17T08:20:01.056Z,38.14
2023-06-17T08:23:03.197Z,38.26
2023-06-17T08:26:06.282Z,37.95
2023-06-17T08:29:08.466Z,38.34
2023-06-17T08:32:10.557Z,38.09
2023-06-17T08:35:12.654Z,37.99
2023-06-17T08:38:14.809Z,37.66
2023-06-17T08:41:16.931Z,37.52
2023-06-17T08:44:22.336Z,37.67
2023-06-17T08:47:24.680Z,37.18
2023-06-17T08:50:28.931Z,37.36
2023-06-17T08:53:31.488Z,37.73
2023-06-17T08:56:34.610Z,37.79
2023-06-17T08:59:36.753Z,37.95
2023-06-17T09:02:39.479Z,37.77
2023-06-17T09:05:41.599Z,37.30
2023-06-17T09:08:44.065Z,36.73
2023-06-17T09:11:52.619Z,37.48
2023-06-17T09:14:58.237Z,37.30
2023-06-17T09:18:00.648Z,37.57
2023-06-17T09:21:03.912Z,36.92
2023-06-17T09:24:07.794Z,37.14
2023-06-17T09:27:20.998Z,37.48
2023-06-17T09:30:24.364Z,37.04
2023-06-17T09:33:28.194Z,37.03
2023-06-17T09:36:30.902Z,37.23
2023-06-17T09:39:34.338Z,37.24
2023-06-17T09:42:36.808Z,37.66
2023-06-17T09:45:40.751Z,37.75
2023-06-17T09:48:44.174Z,37.12
2023-06-17T09:51:48.296Z,37.89
2023-06-17T09:54:51.986Z,37.96
2023-06-17T09:57:55.431Z,38.03
2023-06-17T10:01:02.073Z,37.93
2023-06-17T10:04:04.600Z,35.95
2023-06-17T10:07:07.888Z,36.47
2023-06-17T10:10:12.125Z,37.00
2023-06-17T10:13:15.789Z,37.04
2023-06-17T10:16:20.050Z,37.13
2023-06-17T10:19:28.018Z,36.73
2023-06-17T10:22:30.286Z,34.95
2023-06-17T10:25:33.846Z,35.34
2023-06-17T10:28:46.782Z,35.55
2023-06-17T10:31:48.919Z,35.78
2023-06-17T10:35:10.878Z,35.85
2023-06-17T10:38:29.230Z,36.29
2023-06-17T10:41:40.460Z,36.76
2023-06-17T10:44:43.779Z,35.87
2023-06-17T10:47:46.166Z,35.92
2023-06-17T10:51:01.571Z,33.39
2023-06-17T10:54:04.897Z,30.85
2023-06-17T10:57:07.415Z,32.48
2023-06-17T11:00:13.515Z,34.57
2023-06-17T11:03:17.651Z,35.79
2023-06-17T11:06:19.797Z,35.84
2023-06-17T11:09:26.727Z,35.05
2023-06-17T11:12:28.880Z,36.21
2023-06-17T11:15:30.948Z,35.69
2023-06-17T11:18:40.021Z,36.23
2023-06-17T11:21:42.671Z,35.56
2023-06-17T11:24:46.510Z,36.16
2023-06-17T11:27:51.791Z,33.54
2023-06-17T11:30:57.211Z,35.69
2023-06-17T11:34:03.154Z,34.46
2023-06-17T11:37:10.830Z,36.20
2023-06-17T11:40:13.678Z,35.95
2023-06-17T11:43:17.220Z,36.47
2023-06-17T11:46:26.320Z,35.56
2023-06-17T11:49:28.867Z,34.80
2023-06-17T11:52:30.978Z,35.23
2023-06-17T11:55:34.739Z,34.27
2023-06-17T11:58:39.417Z,33.67
2023-06-17T12:01:42.977Z,33.71
2023-06-17T12:04:46.621Z,33.62
2023-06-17T12:07:48.852Z,34.82
2023-06-17T12:10:51.103Z,34.72
2023-06-17T12:13:53.488Z,34.79
2023-06-17T12:16:55.616Z,34.68
2023-06-17T12:20:01.799Z,34.77
2023-06-17T12:23:05.022Z,33.08
2023-06-17T12:26:07.146Z,34.77
2023-06-17T12:29:24.616Z,32.73
2023-06-17T12:32:29.687Z,33.82
2023-06-17T12:35:32.401Z,34.60
2023-06-17T12:38:35.098Z,32.57
2023-06-17T12:41:37.280Z,31.28
2023-06-17T12:44:39.369Z,31.35
2023-06-17T12:47:42.204Z,31.57
2023-06-17T12:50:44.732Z,31.45
2023-06-17T12:53:46.840Z,32.53
2023-06-17T12:56:48.930Z,32.76
2023-06-17T12:59:51.057Z,34.49
2023-06-17T13:02:53.165Z,33.33
2023-06-17T13:05:55.437Z,33.25
2023-06-17T13:08:57.558Z,34.22
2023-06-17T13:11:59.609Z,34.54
2023-06-17T13:15:04.531Z,35.45
2023-06-17T13:18:08.998Z,34.53
2023-06-17T13:21:11.123Z,33.83
2023-06-17T13:24:14.132Z,34.16
2023-06-17T13:27:19.765Z,34.80
2023-06-17T13:30:22.086Z,33.62
2023-06-17T13:33:24.411Z,33.44
2023-06-17T13:36:26.825Z,34.06
2023-06-17T13:39:28.917Z,33.76
2023-06-17T13:42:33.724Z,33.19
2023-06-17T13:45:35.849Z,32.73
2023-06-17T13:48:37.996Z,32.06
2023-06-17T13:51:40.347Z,31.89
2023-06-17T13:54:42.657Z,31.38
2023-06-17T13:57:44.803Z,32.51
2023-06-17T14:00:46.885Z,33.10
2023-06-17T14:03:49.372Z,33.38
2023-06-17T14:06:51.596Z,33.41
2023-06-17T14:09:53.697Z,32.06
2023-06-17T14:12:55.862Z,32.51
2023-06-17T14:15:58.094Z,32.13
2023-06-17T14:19:01.551Z,33.25
2023-06-17T14:22:07.932Z,33.89
2023-06-17T14:25:11.353Z,33.76
2023-06-17T14:28:13.621Z,33.22
2023-06-17T14:31:15.699Z,35.15
2023-06-17T14:34:17.930Z,34.25
2023-06-17T14:37:20.096Z,34.33
2023-06-17T14:40:22.627Z,34.71
2023-06-17T14:43:24.832Z,31.87
2023-06-17T14:46:26.961Z,32.35
2023-06-17T14:49:29.193Z,31.06
2023-06-17T14:52:31.344Z,31.83
2023-06-17T14:55:33.946Z,32.70
2023-06-17T14:58:36.003Z,33.09
2023-06-17T15:01:39.077Z,34.11
2023-06-17T15:04:41.261Z,34.15
2023-06-17T15:07:43.395Z,34.12
2023-06-17T15:10:45.559Z,32.96
2023-06-17T15:13:47.636Z,33.78
2023-06-17T15:16:50.335Z,34.05
2023-06-17T15:19:52.558Z,34.88
2023-06-17T15:22:54.662Z,34.63
2023-06-17T15:25:56.832Z,33.14
2023-06-17T15:28:59.068Z,33.65
2023-06-17T15:32:01.136Z,33.05
2023-06-17T15:35:03.317Z,33.74
2023-06-17T15:38:05.433Z,33.49
2023-06-17T15:41:07.588Z,33.38
2023-06-17T15:44:10.438Z,33.57
2023-06-17T15:47:12.583Z,33.95
2023-06-17T15:50:14.889Z,34.68
2023-06-17T15:53:16.973Z,34.66
2023-06-17T15:56:19.074Z,34.87
2023-06-17T15:59:21.460Z,34.61
2023-06-17T16:02:23.606Z,34.69
2023-06-17T16:05:25.785Z,34.90
2023-06-17T16:08:27.978Z,34.79
2023-06-17T16:11:30.050Z,34.10
2023-06-17T16:14:33.773Z,33.92
2023-06-17T16:17:36.435Z,34.19
2023-06-17T16:20:38.748Z,33.83
2023-06-17T16:23:40.845Z,34.58
2023-06-17T16:26:42.950Z,35.20
2023-06-17T16:29:45.148Z,34.74
2023-06-17T16:32:47.680Z,34.96
2023-06-17T16:35:49.835Z,35.23
2023-06-17T16:38:51.897Z,34.60
2023-06-17T16:41:54.053Z,34.05
2023-06-17T16:44:56.165Z,33.94
2023-06-17T16:47:58.327Z,34.17
2023-06-17T16:51:06.700Z,34.60
2023-06-17T16:54:09.007Z,35.03
2023-06-17T16:57:11.705Z,34.39
2023-06-17T17:00:14.095Z,34.18
2023-06-17T17:03:16.436Z,34.28
2023-06-17T17:06:19.024Z,34.32
2023-06-17T17:09:21.987Z,36.19
2023-06-17T17:12:24.124Z,36.26
2023-06-17T17:15:26.497Z,36.36
2023-06-17T17:18:28.929Z,36.37
2023-06-17T17:21:31.595Z,36.14
2023-06-17T17:24:33.766Z,36.58
2023-06-17T17:27:36.186Z,36.24
2023-06-17T17:30:38.635Z,36.26
2023-06-17T17:33:42.068Z,36.58
2023-06-17T17:36:44.559Z,36.66
2023-06-17T17:39:46.688Z,36.75
2023-06-17T17:42:49.624Z,36.74
2023-06-17T17:45:51.998Z,36.92
2023-06-17T17:48:54.455Z,36.88
2023-06-17T17:51:56.551Z,36.92
2023-06-17T17:55:02.800Z,37.05
2023-06-17T17:58:05.950Z,37.21
2023-06-17T18:01:08.333Z,37.05
2023-06-17T18:04:10.452Z,37.08
2023-06-17T18:07:12.614Z,37.05
2023-06-17T18:10:14.770Z,37.17
2023-06-17T18:13:16.866Z,37.29
2023-06-17T18:16:19.021Z,37.40
2023-06-17T18:19:21.403Z,37.43
2023-06-17T18:22:23.485Z,37.55
2023-06-17T18:25:25.739Z,37.76
2023-06-17T18:28:27.809Z,37.71
2023-06-17T18:31:30.123Z,37.84
2023-06-17T18:34:32.253Z,37.84
2023-06-17T18:37:34.432Z,37.91
2023-06-17T18:40:36.562Z,37.88
2023-06-17T18:43:38.717Z,37.88
2023-06-17T18:46:41.172Z,37.90
2023-06-17T18:49:43.621Z,37.98
2023-06-17T18:52:46.556Z,38.13
2023-06-17T18:55:48.761Z,38.17
2023-06-17T18:58:51.116Z,38.23
2023-06-17T19:01:53.278Z,38.24
2023-06-17T19:04:55.711Z,38.29
2023-06-17T19:07:57.905Z,38.36
2023-06-17T19:11:00.066Z,38.38
2023-06-17T19:14:02.388Z,38.39
2023-06-17T19:17:04.829Z,38.40
2023-06-17T19:20:10.776Z,38.50
2023-06-17T19:23:12.896Z,38.50
2023-06-17T19:26:15.015Z,38.55
2023-06-17T19:29:17.191Z,38.54
2023-06-17T19:32:19.328Z,38.58
2023-06-17T19:35:21.613Z,38.67
2023-06-17T19:38:23.666Z,38.73
2023-06-17T19:41:27.083Z,38.80
2023-06-17T19:44:33.580Z,38.78
2023-06-17T19:47:35.796Z,38.89
2023-06-17T19:50:38.711Z,38.99
2023-06-17T19:53:40.825Z,38.99
2023-06-17T19:56:43.674Z,39.01
2023-06-17T19:59:45.808Z,39.01
2023-06-17T20:02:48.310Z,39.02
2023-06-17T20:05:50.778Z,39.00
2023-06-17T20:08:52.908Z,39.02
2023-06-17T20:11:55.099Z,39.11
2023-06-17T20:14:57.317Z,39.17
2023-06-17T20:17:59.468Z,39.21
2023-06-17T20:21:01.700Z,39.23
2023-06-17T20:24:04.191Z,39.20
2023-06-17T20:27:06.694Z,39.34
2023-06-17T20:30:09.540Z,39.27
2023-06-17T20:33:11.650Z,38.93
2023-06-17T20:36:14.070Z,38.65
2023-06-17T20:39:16.117Z,38.88
2023-06-17T20:42:18.566Z,38.81
2023-06-17T20:45:20.763Z,38.72
2023-06-17T20:48:22.905Z,38.62
2023-06-17T20:51:25.421Z,38.78
2023-06-17T20:54:28.022Z,38.98
2023-06-17T20:57:30.355Z,38.82
2023-06-17T21:00:32.734Z,39.03
2023-06-17T21:03:34.895Z,39.14
2023-06-17T21:06:37.548Z,39.14
2023-06-17T21:09:39.959Z,39.20
2023-06-17T21:12:42.287Z,39.21
2023-06-17T21:15:44.414Z,39.19
2023-06-17T21:18:46.611Z,38.92
2023-06-17T21:21:48.978Z,38.45
2023-06-17T21:24:51.145Z,38.74
2023-06-17T21:27:53.353Z,38.91
2023-06-17T21:30:55.691Z,39.01
2023-06-17T21:33:57.830Z,39.01
2023-06-17T21:37:00.403Z,39.09
2023-06-17T21:40:02.732Z,39.07
2023-06-17T21:43:04.805Z,39.13
2023-06-17T21:46:07.841Z,39.19
2023-06-17T21:49:10.181Z,39.00
2023-06-17T21:52:12.458Z,39.04
2023-06-17T21:55:14.619Z,38.86
2023-06-17T21:58:16.965Z,39.07
2023-06-17T22:01:19.142Z,38.97
2023-06-17T22:04:21.484Z,38.81
2023-06-17T22:07:23.610Z,38.71
2023-06-17T22:10:25.780Z,38.70
2023-06-17T22:13:27.866Z,38.76
2023-06-17T22:16:29.932Z,39.15
2023-06-17T22:19:32.049Z,39.30
2023-06-17T22:22:34.138Z,39.30
2023-06-17T22:25:36.332Z,39.23
2023-06-17T22:28:38.686Z,39.14
2023-06-17T22:31:40.914Z,39.29
2023-06-17T22:34:42.994Z,39.32
2023-06-17T22:37:45.120Z,39.32
2023-06-17T22:40:47.311Z,39.56
2023-06-17T22:43:49.925Z,39.56
2023-06-17T22:46:52.117Z,39.65
2023-06-17T22:49:54.460Z,39.68
2023-06-17T22:52:56.746Z,39.65
2023-06-17T22:55:58.879Z,39.69
2023-06-17T22:59:00.985Z,39.65
2023-06-17T23:02:03.122Z,39.46
2023-06-17T23:05:05.920Z,39.35
2023-06-17T23:08:08.019Z,39.52
2023-06-17T23:11:10.073Z,39.39
2023-06-17T23:14:12.193Z,39.49
2023-06-17T23:17:14.331Z,39.12
2023-06-17T23:20:16.403Z,39.18
2023-06-17T23:23:18.501Z,39.19
2023-06-17T23:26:20.658Z,39.05
2023-06-17T23:29:23.509Z,39.26
2023-06-17T23:32:26.077Z,39.22
2023-06-17T23:35:28.218Z,39.21
2023-06-17T23:38:33.287Z,39.17
2023-06-17T23:41:35.569Z,39.01
2023-06-17T23:44:37.916Z,38.88
2023-06-17T23:47:40.075Z,38.49
2023-06-17T23:50:42.309Z,38.46
2023-06-17T23:53:44.472Z,39.11
2023-06-17T23:56:46.560Z,39.49
2023-06-17T23:59:48.701Z,39.42
